Tiempo atmosférico en la estación meteorológica de La Orotava, Cañadas Teide, Santa Cruz de Tenerife (2150 m.)



Fecha
DESCASC
Temp. máxima en grados centígrados (hora)
DESCASC
Temp. mínima en grados centígrados (hora)
DESCASC
Temp. media en grados centígrados
DESCASC
Racha de viento máxima en m/sg (hora)
DESCASC
Velocidad máxima media en intervalos de 10 minutos(hora)
DESCASC
Precipitaciones diarias en mm
DESCASC
Precipitaciones de 00:00 a 06:00 en mm
DESCASC
Precipitaciones de 06:00 a 12:00 en mm
DESCASC
Precipitaciones de 12:00 a 18:00 en mm
DESCASC
Precipitaciones de 18:00 a 24:00 en mm
DESCASC
22-01-2020 7.1 (13:00) -8.5 (08:20) -0.7 10 (15:00) 6.11 (00:30) 0 0 0 0 0
21-01-2020 11.7 (09:50) -0.8 (23:50) 5.4 18.89 (15:40) 10.56 (14:50) 0 0 0 0 0
20-01-2020 18.4 (13:50) 3.9 (03:00) 11.1 11.11 (16:10) 7.78 (16:10) 0 0 0 0 0
19-01-2020 16.4 (13:10) 5.8 (00:00) 11.1 11.67 (15:20) 8.89 (17:40) 0 0 0 0 0
18-01-2020 17.1 (15:50) 5.6 (00:00) 11.4 8.89 (15:40) 5.83 (10:20) 0 0 0 0 0
17-01-2020 16.5 (13:40) 4.4 (00:00) 10.5 8.06 (23:00) 5.56 (07:30) 0 0 0 0 0
16-01-2020 16 (14:10) -2.2 (-00:0) 6.9 7.22 (21:50) 5 (21:50) 0 0 0 0 0
15-01-2020 13.3 (13:40) -3.5 (-00:0) 4.9 7.78 (14:20) 4.72 (14:00) 0 0 0 0 0
14-01-2020 10.5 (14:40) -4 (-00:0) 3.3 10.28 (02:10) 6.39 (02:40) 0 0 0 0 0
13-01-2020 13.2 (13:50) -2.4 (-00:0) 5.4 7.78 (14:40) 4.72 (13:00) 0 0 0 0 0
12-01-2020 15.2 (12:00) 2.4 (23:40) 8.8 10 (12:00) 6.67 (00:50) 0 0 0 0 0
11-01-2020 17 (17:10) 2.2 (00:00) 9.6 11.67 (21:10) 7.5 (21:10) 0 0 0 0 0
10-01-2020 14.9 (13:50) 4.2 (00:00) 9.5 12.22 (01:20) 8.33 (10:00) 0 0 0 0 0
09-01-2020 12 (13:40) 2.5 (00:00) 7.3 14.17 (12:50) 9.17 (16:30) 0 0 0 0 0
08-01-2020 10.4 (12:30) -0.8 (-00:0) 4.8 14.17 (08:00) 9.17 (20:50) 0 0 0 0 0
07-01-2020 10 (14:10) -0.6 (-00:0) 4.7 19.44 (01:10) 13.89 (00:50) 0 0 0 0 0
06-01-2020 13 (11:10) 2.5 (00:00) 7.8 18.06 (19:40) 12.5 (19:40) 0 0 0 0 0
05-01-2020 14.6 (13:00) -0.9 (-00:0) 6.9 11.39 (16:50) 6.39 (16:20) 0 0 0 0 0
04-01-2020 14.5 (13:30) 2.3 (00:00) 8.4 7.78 (00:20) 5 (01:30) 0 0 0 0 0
03-01-2020 15.7 (16:10) 1.4 (00:00) 8.5 9.44 (14:40) 6.39 (00:10) 0 0 0 0 0
02-01-2020 16 (13:10) 0.9 (00:00) 8.4 9.72 (23:30) 6.94 (23:30) 0 0 0 0 0
01-01-2020 15.9 (14:20) 2.2 (00:00) 9 8.33 (09:10) 5.83 (09:10) 0 0 0 0 0
31-12-2019 16.2 (13:30) 4.7 (00:00) 10.5 12.22 (12:40) 8.06 (12:30) 0 0 0 0 0
30-12-2019 -- (--) -- (--) -- -- (--) -- (--) -- 0 0 -- 0
29-12-2019 18.4 (12:40) 5.4 (00:00) 11.9 7.78 (13:50) 5.28 (15:00) 0 0 0 0 0
28-12-2019 17.3 (14:20) 4.2 (00:00) 10.7 7.78 (12:50) 5 (23:00) 0 0 0 0 0
27-12-2019 16.6 (14:40) 1.6 (00:00) 9.1 8.89 (10:50) 5.28 (15:20) 0 0 0 0 0

Gráficas

Temp. máximas Temp. mínimas Temp. medias Precipitaciones Rachas de viento máximas Velocidades máximas media en intervalos de 10 minutos

Datos horarios

Fecha y hora oficial Temperatura (ºC) Velocidad del viento (km/h) Dirección del viento Racha (km/h) Dirección de racha Precipitación (mm) Presión (hPa) Tendencia (hPa) Humedad (%)
2020-01-25 23:00:00 -1.6 5 Norte 10 Norte 0 -- -- 24
2020-01-25 22:00:00 -0.2 4 Norte 10 Norte 0 -- -- 24
2020-01-25 21:00:00 1 7 Norte 10 Norte 0 -- -- 19
2020-01-25 20:00:00 1.7 5 Norte 12 Este 0 -- -- 20
2020-01-25 19:00:00 5.5 2 Noroeste 24 Sur 0 -- -- 29
2020-01-25 18:00:00 10.6 11 Sur 37 Sur 0 -- -- 19
2020-01-25 17:00:00 11.8 24 Sudoeste 46 Sur 0 -- -- 16
2020-01-25 16:00:00 12.7 22 Sur 47 Sur 0 -- -- 17
2020-01-25 15:00:00 12.2 26 Sur 45 Sur 0 -- -- 17
2020-01-25 14:00:00 13 20 Sur 38 Sudoeste 0 -- -- 16
2020-01-25 13:00:00 12.1 20 Sudoeste 37 Sudoeste 0 -- -- 21
2020-01-25 12:00:00 12.7 9 Sur 15 Sudoeste 0 -- -- 8
2020-01-25 11:00:00 11.3 9 Sudeste 14 Este 0 -- -- 7
2020-01-25 10:00:00 8.1 9 Este 23 Nordeste 0 -- -- 13
2020-01-25 09:00:00 0.7 15 Este 23 Este 0 -- -- 20
2020-01-25 08:00:00 -2.9 10 Nordeste 21 Noroeste 0 -- -- 36
2020-01-25 07:00:00 -3.4 5 Nordeste 15 Norte 0 -- -- 50
2020-01-25 06:00:00 -4.9 3 Noroeste 13 Norte 0 -- -- 53
2020-01-25 05:00:00 -3.8 4 Nordeste 13 Norte 0 -- -- 58
2020-01-25 04:00:00 -4.3 4 Noroeste 14 Este 0 -- -- 62
2020-01-25 03:00:00 -4.3 8 Nordeste 15 Nordeste 0 -- -- 69
2020-01-25 02:00:00 -3.2 0 Calma 13 Norte 0 -- -- 56
2020-01-25 01:00:00 -2.7 4 Este 11 Nordeste 0 -- -- 67
2020-01-25 00:00:00 -3.2 7 Nordeste 14 Norte 0 -- -- 86
2020-01-24 23:00:00 -2.2 8 Nordeste 24 Este 0 -- -- 89
2020-01-24 22:00:00 -1.8 0 Calma 20 Este 0 -- -- 86
2020-01-24 21:00:00 -1.1 15 Este 21 Este 0 -- -- 87
2020-01-24 20:00:00 0.1 15 Este 21 Este 0 -- -- 80
2020-01-24 19:00:00 2.4 4 Oeste 19 Sudoeste 0 -- -- 65
2020-01-24 18:00:00 5.1 11 Sudoeste 29 Sudoeste 0 -- -- 53
2020-01-24 17:00:00 5.8 15 Sudoeste 38 Sudoeste 0 -- -- 51
2020-01-24 16:00:00 5.8 23 Sudoeste 44 Sudoeste 0 -- -- 66
2020-01-24 15:00:00 6.8 20 Sur 40 Sur 0 -- -- 65
2020-01-24 14:00:00 7 13 Oeste 29 Sudoeste 0 -- -- 60
2020-01-24 13:00:00 8.5 10 Sudoeste 30 Sudoeste 0 -- -- 40
2020-01-24 12:00:00 6.7 12 Oeste 23 Oeste 0 -- -- 47
2020-01-24 11:00:00 6.3 10 Sudoeste 17 Sudoeste 0 -- -- 21
2020-01-24 10:00:00 4.2 3 Sudeste 6 Sudeste 0 -- -- 27
2020-01-24 09:00:00 -2.9 5 Nordeste 9 Este 0 -- -- 52
2020-01-24 08:00:00 -5.4 6 Nordeste 12 Norte 0 -- -- 70
2020-01-24 07:00:00 -5.6 8 Norte 13 Norte 0 -- -- 70
2020-01-24 06:00:00 -5.7 4 Nordeste 10 Norte 0 -- -- 66
2020-01-24 05:00:00 -5.4 3 Norte 15 Norte 0 -- -- 56
2020-01-24 04:00:00 -4.2 3 Este 15 Norte 0 -- -- 49
2020-01-24 03:00:00 -5.8 4 Norte 10 Norte 0 -- -- 52
2020-01-24 02:00:00 -4.7 5 Norte 14 Norte 0 -- -- 46
2020-01-24 01:00:00 -2.8 5 Sur 13 Sur 0 -- -- 38
2020-01-24 00:00:00 -0.5 6 Sur 13 Sudeste 0 -- -- 31
2020-01-23 23:00:00 0.4 9 Sur 17 Sur 0 -- -- 30
2020-01-23 22:00:00 -3 4 Noroeste 8 Noroeste 0 -- -- 55
2020-01-23 21:00:00 -1.1 0 Calma 8 Norte 0 -- -- 51
2020-01-23 20:00:00 -0.9 4 Norte 10 Norte 0 -- -- 70
2020-01-23 19:00:00 1.9 0 Calma 21 Sudoeste 0 -- -- 71
2020-01-23 18:00:00 4.3 12 Sudoeste 30 Sur 0 -- -- 73
2020-01-23 17:00:00 6.7 11 Sudoeste 29 Sur 0 -- -- 56
2020-01-23 16:00:00 5.3 13 Sudoeste 41 Sudoeste 0 -- -- 69
2020-01-23 15:00:00 6.5 20 Sur 37 Sudoeste 0 -- -- 64
2020-01-23 14:00:00 7.6 13 Sudoeste 29 Oeste 0 -- -- 57
2020-01-23 13:00:00 6.1 12 Sudoeste 24 Oeste 0 -- -- 62
2020-01-23 12:00:00 7.1 7 Sudoeste 17 Sudoeste 0 -- -- 40
2020-01-23 11:00:00 5.7 4 Sudoeste 10 Sur 0 -- -- 41
2020-01-23 10:00:00 3.1 2 Sudeste 17 Nordeste 0 -- -- 67
2020-01-23 09:00:00 -3.4 2 Nordeste 13 Nordeste 0 -- -- 93
2020-01-23 08:00:00 -5 3 Nordeste 11 Norte 0 -- -- 85
2020-01-23 07:00:00 -4.1 5 Nordeste 17 Este 0 -- -- 86
2020-01-23 06:00:00 -3.6 6 Nordeste 18 Este 0 -- -- 89
2020-01-23 05:00:00 -2.6 15 Este 22 Este 0 -- -- 97
2020-01-23 04:00:00 -5.2 8 Nordeste 11 Norte 0 -- -- 89
2020-01-23 03:00:00 -5.1 6 Norte 11 Nordeste 0 -- -- 88
2020-01-23 02:00:00 -3.6 4 Nordeste 15 Nordeste 0 -- -- 93
2020-01-23 01:00:00 -3 7 Nordeste 14 Nordeste 0 -- -- 84
2020-01-23 00:00:00 -2.2 7 Este 14 Norte 0 -- -- 83
2020-01-22 23:00:00 -3.7 7 Norte 12 Norte 0 -- -- 84
2020-01-22 22:00:00 -2.9 8 Nordeste 15 Norte 0 -- -- 85
2020-01-22 21:00:00 -2.4 0 Calma 13 Este 0 -- -- 84
2020-01-22 20:00:00 -1.1 4 Sudeste 13 Sudeste 0 -- -- 77
2020-01-22 19:00:00 0.1 4 Sudeste 22 Sur 0 -- -- 67
2020-01-22 18:00:00 2.9 13 Sur 32 Sudoeste 0 -- -- 69
2020-01-22 17:00:00 4.3 15 Sur 26 Sur 0 -- -- 67
2020-01-22 16:00:00 3.3 14 Sudoeste 31 Sur 0 -- -- 71
2020-01-22 15:00:00 3.7 15 Sudoeste 36 Sudoeste 0 -- -- 67
2020-01-22 14:00:00 5.3 15 Oeste 29 Oeste 0 -- -- 61
2020-01-22 13:00:00 7.1 19 Sur 25 Sur 0 -- -- 54
2020-01-22 12:00:00 6.3 13 Sudoeste 23 Sudoeste 0 -- -- 46
2020-01-22 11:00:00 5.8 9 Sur 13 Sur 0 -- -- 22
2020-01-22 10:00:00 2.1 4 Sur 6 Sur 0 -- -- 39
2020-01-22 09:00:00 -5.8 7 Norte 9 Norte 0 -- -- 64
2020-01-22 08:00:00 -8.1 5 Norte 6 Noroeste 0 -- -- 73
2020-01-22 07:00:00 -6.4 0 Calma 9 Norte 0 -- -- 58
2020-01-22 06:00:00 -6.9 0 Calma 10 Norte 0 -- -- 64
2020-01-22 05:00:00 -6.8 4 Noroeste 9 Nordeste 0 -- -- 62
2020-01-22 04:00:00 -6.9 3 Norte 10 Norte 0 -- -- 67
2020-01-22 03:00:00 -4.1 3 Sudeste 9 Nordeste 0 -- -- 76
2020-01-22 02:00:00 -3.9 6 Nordeste 13 Norte 0 -- -- 82
2020-01-22 01:00:00 -2.7 4 Norte 30 Este 0 -- -- 82
2020-01-22 00:00:00 -0.6 16 Este 35 Este 0 -- -- 75
2020-01-21 23:00:00 -0.3 18 Este 31 Este 0 -- -- 81
2020-01-21 22:00:00 0.1 6 Sudeste 25 Sudoeste 0 -- -- 85
2020-01-21 21:00:00 1.1 19 Sudoeste 43 Sur 0 -- -- 79
2020-01-21 20:00:00 1.5 21 Sudoeste 42 Sudoeste 0 -- -- 78
2020-01-21 19:00:00 1.3 15 Sur 54 Sudoeste 0 -- -- 90
2020-01-21 18:00:00 1.6 17 Sudoeste 50 Sur 0 -- -- 87
2020-01-21 17:00:00 2.4 27 Sudoeste 50 Sur 0 -- -- 92
2020-01-21 16:00:00 4.9 24 Sudoeste 68 Sudoeste 0 -- -- 69
2020-01-21 15:00:00 4.5 33 Sur 65 Sudoeste 0 -- -- 74
2020-01-21 14:00:00 3.4 28 Sudoeste 55 Sudoeste 0 -- -- 80
2020-01-21 13:00:00 4.4 13 Sudoeste 40 Sur 0 -- -- 74
2020-01-21 12:00:00 6.9 12 Sudoeste 33 Sudoeste 0 -- -- 50
2020-01-21 11:00:00 9.9 9 Sur 27 Oeste 0 -- -- 22
2020-01-21 10:00:00 11.5 12 Oeste 32 Oeste 0 -- -- 14
2020-01-21 09:00:00 9.7 14 Noroeste 28 Noroeste 0 -- -- 16
2020-01-21 08:00:00 8.2 12 Oeste 30 Oeste 0 -- -- 16
2020-01-21 07:00:00 7.3 12 Oeste 31 Oeste 0 -- -- 10
2020-01-21 06:00:00 7.5 14 Oeste 35 Oeste 0 -- -- 9
2020-01-21 05:00:00 6.2 12 Oeste 33 Sudoeste 0 -- -- 17
2020-01-21 04:00:00 6.1 10 Sudoeste 20 Sur 0 -- -- 10
2020-01-21 03:00:00 5.9 12 Sur 35 Sudoeste 0 -- -- 9
2020-01-21 02:00:00 6.7 8 Sudoeste 21 Sudoeste 0 -- -- 7
2020-01-21 01:00:00 6.1 12 Sudoeste 21 Sudoeste 0 -- -- 11
2020-01-21 00:00:00 5 5 Este 12 Noroeste 0 -- -- 16
2020-01-20 23:00:00 6.1 4 Sur 16 Nordeste 0 -- -- 14
2020-01-20 22:00:00 4.6 8 Este 14 Sudeste 0 -- -- 13
2020-01-20 21:00:00 7.8 3 Oeste 16 Sudeste 0 -- -- 12
2020-01-20 20:00:00 7.5 5 Este 23 Este 0 -- -- 12
2020-01-20 19:00:00 10 11 Sudeste 25 Sudeste 0 -- -- 10
2020-01-20 18:00:00 13.2 12 Sudeste 32 Este 0 -- -- 8
2020-01-20 17:00:00 15.6 11 Sudeste 40 Este 0 -- -- 11
2020-01-20 16:00:00 13.6 23 Sudeste 38 Sudeste 0 -- -- 7
2020-01-20 15:00:00 16.3 22 Sudoeste 35 Sudoeste 0 -- -- 8
2020-01-20 14:00:00 18.3 17 Sudoeste 31 Sudoeste 0 -- -- 8
2020-01-20 13:00:00 16.7 13 Sudeste 26 Sudeste 0 -- -- 5
2020-01-20 12:00:00 14.4 5 Noroeste 19 Sudoeste 0 -- -- 5
2020-01-20 11:00:00 13.8 9 Oeste 15 Noroeste 0 -- -- 4
2020-01-20 10:00:00 13 4 Noroeste 32 Este 0 -- -- 4
2020-01-20 09:00:00 9.1 17 Este 34 Este 0 -- -- 2
2020-01-20 08:00:00 9.5 26 Este 40 Este 0 -- -- 2
2020-01-20 07:00:00 8.6 22 Este 34 Este 0 -- -- 6
2020-01-20 06:00:00 7.8 18 Este 31 Este 0 -- -- 7
2020-01-20 05:00:00 8 21 Este 30 Este 0 -- -- 11
2020-01-20 04:00:00 8.1 17 Este 38 Este 0 -- -- 28
2020-01-20 03:00:00 3.9 6 Norte 26 Este 0 -- -- 42
2020-01-20 02:00:00 7.2 11 Este 25 Este 0 -- -- 34
2020-01-20 01:00:00 8.6 15 Este 31 Este 0 -- -- 16
2020-01-20 00:00:00 8.7 25 Este 38 Este 0 -- -- 13
2020-01-19 23:00:00 8.5 28 Este 41 Este 0 -- -- 23
2020-01-19 22:00:00 8.2 27 Este 39 Este 0 -- -- 27
2020-01-19 21:00:00 7.9 21 Nordeste 35 Nordeste 0 -- -- 33
2020-01-19 20:00:00 8.9 24 Nordeste 35 Nordeste 0 -- -- 29
2020-01-19 19:00:00 8.7 18 Nordeste 39 Nordeste 0 -- -- 29
2020-01-19 18:00:00 11.4 28 Nordeste 42 Nordeste 0 -- -- 22
2020-01-19 17:00:00 13.1 27 Nordeste 38 Nordeste 0 -- -- 25
2020-01-19 16:00:00 13.6 22 Este 42 Nordeste 0 -- -- 25
2020-01-19 15:00:00 14.7 25 Este 37 Este 0 -- -- 24
2020-01-19 14:00:00 15.3 25 Este 37 Este 0 -- -- 17
2020-01-19 13:00:00 15.6 20 Nordeste 35 Este 0 -- -- 16
2020-01-19 12:00:00 15.7 19 Este 31 Este 0 -- -- 13
2020-01-19 11:00:00 14.8 21 Nordeste 28 Nordeste 0 -- -- 13
2020-01-19 10:00:00 12.4 13 Este 20 Este 0 -- -- 9
2020-01-19 09:00:00 7.4 16 Este 21 Este 0 -- -- 10
2020-01-19 08:00:00 6.7 15 Este 21 Nordeste 0 -- -- 9
2020-01-19 07:00:00 7.5 17 Este 22 Este 0 -- -- 9
2020-01-19 06:00:00 6.5 14 Este 19 Nordeste 0 -- -- 10
2020-01-19 05:00:00 7.8 14 Nordeste 23 Nordeste 0 -- -- 9
2020-01-19 04:00:00 8.9 15 Nordeste 24 Nordeste 0 -- -- 9
2020-01-19 03:00:00 7.9 17 Nordeste 21 Nordeste 0 -- -- 8
2020-01-19 02:00:00 7.5 18 Nordeste 22 Nordeste 0 -- -- 9
2020-01-19 01:00:00 7.2 14 Nordeste 22 Nordeste 0 -- -- 9
2020-01-19 00:00:00 6.3 14 Nordeste 20 Nordeste 0 -- -- 10
2020-01-18 23:00:00 6.6 14 Nordeste 22 Nordeste 0 -- -- 11
2020-01-18 22:00:00 7.8 16 Nordeste 24 Nordeste 0 -- -- 10
2020-01-18 21:00:00 8.4 16 Nordeste 20 Nordeste 0 -- -- 10
2020-01-18 20:00:00 7.9 11 Este 20 Este 0 -- -- 10
2020-01-18 19:00:00 9.8 14 Nordeste 21 Nordeste 0 -- -- 10
2020-01-18 18:00:00 13 16 Nordeste 28 Nordeste 0 -- -- 7
2020-01-18 17:00:00 15 17 Nordeste 26 Nordeste 0 -- -- 7
2020-01-18 16:00:00 16.4 14 Este 32 Este 0 -- -- 8
2020-01-18 15:00:00 16.4 17 Este 28 Este 0 -- -- 12
2020-01-18 14:00:00 16.9 16 Este 31 Este 0 -- -- 8
2020-01-18 13:00:00 16.1 18 Este 28 Este 0 -- -- 9
2020-01-18 12:00:00 15.5 19 Este 29 Este 0 -- -- 7
2020-01-18 11:00:00 15.2 18 Nordeste 30 Nordeste 0 -- -- 7
2020-01-18 10:00:00 13.5 19 Nordeste 27 Nordeste 0 -- -- 7
2020-01-18 09:00:00 8.4 10 Nordeste 25 Nordeste 0 -- -- 9
2020-01-18 08:00:00 8.5 19 Nordeste 28 Nordeste 0 -- -- 9
2020-01-18 07:00:00 7.1 14 Nordeste 23 Nordeste 0 -- -- 8
2020-01-18 06:00:00 8.1 20 Nordeste 23 Nordeste 0 -- -- 6
2020-01-18 05:00:00 7.8 17 Nordeste 23 Nordeste 0 -- -- 5
2020-01-18 04:00:00 5.8 15 Nordeste 23 Nordeste 0 -- -- 8
2020-01-18 03:00:00 6.8 13 Nordeste 23 Nordeste 0 -- -- 9
2020-01-18 02:00:00 6.7 17 Nordeste 30 Nordeste 0 -- -- 11
2020-01-18 01:00:00 7 14 Nordeste 27 Nordeste 0 -- -- 10
2020-01-18 00:00:00 8.3 18 Nordeste 27 Nordeste 0 -- -- 9
2020-01-17 23:00:00 8 20 Nordeste 29 Nordeste 0 -- -- 11
2020-01-17 22:00:00 7.3 15 Nordeste 23 Este 0 -- -- 10
2020-01-17 21:00:00 8.1 17 Nordeste 25 Nordeste 0 -- -- 8
2020-01-17 20:00:00 7.2 18 Nordeste 22 Nordeste 0 -- -- 10
2020-01-17 19:00:00 8.8 14 Nordeste 22 Este 0 -- -- 10
2020-01-17 18:00:00 13.5 12 Nordeste 19 Este 0 -- -- 7
2020-01-17 17:00:00 15.4 12 Nordeste 24 Nordeste 0 -- -- 8
2020-01-17 16:00:00 16.2 11 Este 22 Sudeste 0 -- -- 8
2020-01-17 15:00:00 15.5 13 Sudeste 25 Este 0 -- -- 9
2020-01-17 14:00:00 15.9 15 Este 24 Este 0 -- -- 11
2020-01-17 13:00:00 16.4 15 Este 27 Este 0 -- -- 9
2020-01-17 12:00:00 15.6 16 Este 25 Este 0 -- -- 9
2020-01-17 11:00:00 14.9 13 Este 21 Sudeste 0 -- -- 7
2020-01-17 10:00:00 13.3 12 Nordeste 21 Nordeste 0 -- -- 8
2020-01-17 09:00:00 4.7 16 Este 23 Nordeste 0 -- -- 15
2020-01-17 08:00:00 4.4 17 Este 24 Nordeste 0 -- -- 14
2020-01-17 07:00:00 5.8 19 Nordeste 22 Nordeste 0 -- -- 12
2020-01-17 06:00:00 5.5 17 Nordeste 20 Nordeste 0 -- -- 12
2020-01-17 05:00:00 6.1 17 Nordeste 21 Nordeste 0 -- -- 12
2020-01-17 04:00:00 6.3 18 Nordeste 22 Nordeste 0 -- -- 12
2020-01-17 03:00:00 5.8 15 Este 20 Este 0 -- -- 12
2020-01-17 02:00:00 6 17 Nordeste 23 Nordeste 0 -- -- 11
2020-01-17 01:00:00 6.1 18 Nordeste 21 Nordeste 0 -- -- 11
2020-01-17 00:00:00 5.8 16 Nordeste 20 Nordeste 0 -- -- 12
2020-01-16 23:00:00 6.4 14 Nordeste 21 Este 0 -- -- 9
2020-01-16 22:00:00 8.1 15 Este 26 Este 0 -- -- 8
2020-01-16 21:00:00 7.8 13 Este 21 Este 0 -- -- 8
2020-01-16 20:00:00 7.2 4 Sudeste 13 Nordeste 0 -- -- 14
2020-01-16 19:00:00 7.5 2 Sudoeste 14 Sudoeste 0 -- -- 33
2020-01-16 18:00:00 11.8 10 Sudoeste 21 Oeste 0 -- -- 34
2020-01-16 17:00:00 13.6 13 Sudoeste 24 Sudoeste 0 -- -- 32
2020-01-16 16:00:00 15.3 10 Sudoeste 23 Sudoeste 0 -- -- 27
2020-01-16 15:00:00 14.9 11 Oeste 23 Oeste 0 -- -- 20
2020-01-16 14:00:00 15.8 12 Sudoeste 23 Sudoeste 0 -- -- 15
2020-01-16 13:00:00 15.7 9 Sur 18 Sur 0 -- -- 10
2020-01-16 12:00:00 13.1 6 Sudoeste 14 Sur 0 -- -- 9
2020-01-16 11:00:00 12.8 5 Sur 9 Sur 0 -- -- 8
2020-01-16 10:00:00 10.7 2 Este 7 Sur 0 -- -- 11
2020-01-16 09:00:00 1.2 3 Norte 8 Nordeste 0 -- -- 20
2020-01-16 08:00:00 -0.9 5 Nordeste 12 Norte 0 -- -- 22
2020-01-16 07:00:00 -1.3 4 Nordeste 9 Norte 0 -- -- 23
2020-01-16 06:00:00 -0.5 4 Este 9 Norte 0 -- -- 21
2020-01-16 05:00:00 -1.1 2 Nordeste 8 Norte 0 -- -- 22
2020-01-16 04:00:00 -0.2 4 Nordeste 10 Nordeste 0 -- -- 22
2020-01-16 03:00:00 0.5 8 Nordeste 13 Norte 0 -- -- 19
2020-01-16 02:00:00 -1.2 7 Norte 12 Norte 0 -- -- 23
2020-01-16 01:00:00 0.7 6 Nordeste 9 Norte 0 -- -- 19
2020-01-16 00:00:00 1.8 7 Norte 8 Nordeste 0 -- -- 18
2020-01-15 23:00:00 1.3 4 Nordeste 9 Nordeste 0 -- -- 22
2020-01-15 22:00:00 0.4 6 Norte 9 Norte 0 -- -- 27
2020-01-15 21:00:00 1.5 5 Norte 6 Norte 0 -- -- 32
2020-01-15 20:00:00 1.5 4 Norte 6 Norte 0 -- -- 30
2020-01-15 19:00:00 5.9 2 Sur 13 Sudoeste 0 -- -- 28
2020-01-15 18:00:00 10.2 7 Sudoeste 17 Sudoeste 0 -- -- 24
2020-01-15 17:00:00 11.2 9 Sudoeste 23 Sudoeste 0 -- -- 24
2020-01-15 16:00:00 10.8 10 Oeste 23 Oeste 0 -- -- 32
2020-01-15 15:00:00 11.3 11 Oeste 28 Sur 0 -- -- 28
2020-01-15 14:00:00 12.3 17 Sudoeste 25 Sudoeste 0 -- -- 18
2020-01-15 13:00:00 12.2 11 Sudoeste 20 Sur 0 -- -- 17
2020-01-15 12:00:00 11.3 10 Sur 21 Sur 0 -- -- 14
2020-01-15 11:00:00 10.5 10 Sur 24 Sudeste 0 -- -- 12
2020-01-15 10:00:00 7.7 3 Nordeste 13 Sudeste 0 -- -- 11
2020-01-15 09:00:00 0.1 4 Nordeste 10 Norte 0 -- -- 21
2020-01-15 08:00:00 -3.2 7 Nordeste 9 Nordeste 0 -- -- 25
2020-01-15 07:00:00 -1.2 5 Norte 12 Norte 0 -- -- 22
2020-01-15 06:00:00 -1.2 3 Nordeste 11 Norte 0 -- -- 21
2020-01-15 05:00:00 -0.1 0 Calma 13 Norte 0 -- -- 22
2020-01-15 04:00:00 -2.2 7 Nordeste 10 Norte 0 -- -- 28
2020-01-15 03:00:00 -2 3 Este 12 Norte 0 -- -- 32
2020-01-15 02:00:00 -1.8 3 Nordeste 11 Nordeste 0 -- -- 33
2020-01-15 01:00:00 -2.2 5 Norte 11 Nordeste 0 -- -- 29
2020-01-15 00:00:00 -0.9 6 Norte 14 Este 0 -- -- 31
2020-01-14 23:00:00 -2 5 Norte 10 Norte 0 -- -- 25
2020-01-14 22:00:00 0 2 Norte 9 Norte 0 -- -- 26
2020-01-14 21:00:00 0.2 3 Norte 7 Norte 0 -- -- 28
2020-01-14 20:00:00 4.5 4 Sudoeste 11 Sur 0 -- -- 20
2020-01-14 19:00:00 5.2 5 Sudoeste 16 Sudoeste 0 -- -- 32
2020-01-14 18:00:00 8.9 5 Sudoeste 19 Sudoeste 0 -- -- 27
2020-01-14 17:00:00 10 8 Oeste 22 Sudoeste 0 -- -- 33
2020-01-14 16:00:00 8.6 15 Oeste 26 Oeste 0 -- -- 39
2020-01-14 15:00:00 9.8 13 Sur 28 Sudoeste 0 -- -- 32
2020-01-14 14:00:00 9.6 16 Sudoeste 28 Sudoeste 0 -- -- 32
2020-01-14 13:00:00 9.7 17 Sudoeste 28 Sur 0 -- -- 20
2020-01-14 12:00:00 9.8 18 Sur 26 Sudoeste 0 -- -- 25
2020-01-14 11:00:00 7.9 13 Sur 22 Sur 0 -- -- 29
2020-01-14 10:00:00 8.8 3 Sudoeste 11 Sudoeste 0 -- -- 20
2020-01-14 09:00:00 2.9 5 Oeste 10 Oeste 0 -- -- 24
2020-01-14 08:00:00 -1.4 6 Noroeste 10 Norte 0 -- -- 33
2020-01-14 07:00:00 -0.4 5 Norte 9 Norte 0 -- -- 35
2020-01-14 06:00:00 -2.4 8 Norte 11 Norte 0 -- -- 52
2020-01-14 05:00:00 -3.6 9 Norte 12 Nordeste 0 -- -- 60
2020-01-14 04:00:00 -2.1 9 Norte 29 Sudeste 0 -- -- 55
2020-01-14 03:00:00 1.7 16 Sur 37 Sudeste 0 -- -- 47
2020-01-14 02:00:00 1.6 22 Sur 34 Sudeste 0 -- -- 47
2020-01-14 01:00:00 -0.6 4 Sudeste 14 Sudoeste 0 -- -- 43
2020-01-14 00:00:00 0.2 6 Nordeste 14 Este 0 -- -- 27
2020-01-13 23:00:00 -0.7 6 Norte 19 Sudeste 0 -- -- 31
2020-01-13 22:00:00 0.8 5 Este 10 Sudeste 0 -- -- 34
2020-01-13 21:00:00 1.6 3 Norte 4 Norte 0 -- -- 54
2020-01-13 20:00:00 2.2 3 Norte 8 Sudoeste 0 -- -- 60
2020-01-13 19:00:00 5.1 8 Sudoeste 17 Sudoeste 0 -- -- 67
2020-01-13 18:00:00 9.6 6 Sudoeste 17 Oeste 0 -- -- 33
2020-01-13 17:00:00 11.5 8 Sudoeste 20 Oeste 0 -- -- 19
2020-01-13 16:00:00 10.5 13 Oeste 24 Sudoeste 0 -- -- 38
2020-01-13 15:00:00 11.3 12 Oeste 28 Sudoeste 0 -- -- 35
2020-01-13 14:00:00 13 12 Sur 26 Sudeste 0 -- -- 29
2020-01-13 13:00:00 11.4 17 Sudeste 26 Sudeste 0 -- -- 32
2020-01-13 12:00:00 12.8 8 Sur 20 Sudoeste 0 -- -- 22
2020-01-13 11:00:00 10.7 5 Sudoeste 12 Este 0 -- -- 24
2020-01-13 10:00:00 8.8 3 Sudeste 6 Sur 0 -- -- 11
2020-01-13 09:00:00 1.6 0 Calma 11 Norte 0 -- -- 16
2020-01-13 08:00:00 0.7 3 Este 11 Nordeste 0 -- -- 16
2020-01-13 07:00:00 -1.5 6 Norte 10 Norte 0 -- -- 17
2020-01-13 06:00:00 -1.8 7 Nordeste 9 Norte 0 -- -- 16
2020-01-13 05:00:00 -0.6 2 Norte 9 Norte 0 -- -- 15
2020-01-13 04:00:00 1.5 3 Nordeste 8 Norte 0 -- -- 11
2020-01-13 03:00:00 2.6 4 Este 9 Nordeste 0 -- -- 9
2020-01-13 02:00:00 4 10 Nordeste 17 Nordeste 0 -- -- 8
2020-01-13 01:00:00 3.6 12 Nordeste 19 Nordeste 0 -- -- 14
2020-01-13 00:00:00 3.2 11 Nordeste 24 Nordeste 0 -- -- 14
2020-01-12 23:00:00 4.8 22 Nordeste 26 Nordeste 0 -- -- 11
2020-01-12 22:00:00 5 17 Nordeste 25 Nordeste 0 -- -- 11
2020-01-12 21:00:00 5.4 13 Nordeste 19 Nordeste 0 -- -- 18
2020-01-12 20:00:00 6.6 15 Nordeste 18 Este 0 -- -- 17
2020-01-12 19:00:00 7.3 6 Nordeste 14 Sudeste 0 -- -- 18
2020-01-12 18:00:00 12.3 9 Sudoeste 19 Sudoeste 0 -- -- 17
2020-01-12 17:00:00 13.6 9 Oeste 22 Este 0 -- -- 20
2020-01-12 16:00:00 14.5 15 Este 24 Este 0 -- -- 14
2020-01-12 15:00:00 13.9 16 Este 25 Sudeste 0 -- -- 14
2020-01-12 14:00:00 14.1 18 Sudeste 31 Sudeste 0 -- -- 14
2020-01-12 13:00:00 15.2 15 Este 33 Este 0 -- -- 11
2020-01-12 12:00:00 15.2 19 Este 36 Este 0 -- -- 11
2020-01-12 11:00:00 15 13 Este 32 Nordeste 0 -- -- 11
2020-01-12 10:00:00 12.4 13 Nordeste 26 Nordeste 0 -- -- 14
2020-01-12 09:00:00 7 21 Nordeste 27 Nordeste 0 -- -- 19
2020-01-12 08:00:00 6 18 Nordeste 25 Nordeste 0 -- -- 20
2020-01-12 07:00:00 5.7 23 Nordeste 30 Nordeste 0 -- -- 21
2020-01-12 06:00:00 6.1 19 Nordeste 28 Nordeste 0 -- -- 19
2020-01-12 05:00:00 5.3 21 Nordeste 29 Nordeste 0 -- -- 21
2020-01-12 04:00:00 5.8 21 Nordeste 30 Nordeste 0 -- -- 21
2020-01-12 03:00:00 5.6 21 Nordeste 29 Este 0 -- -- 23
2020-01-12 02:00:00 6.6 23 Este 31 Este 0 -- -- 20
2020-01-12 01:00:00 6.9 23 Nordeste 31 Este 0 -- -- 18
2020-01-12 00:00:00 8 20 Este 30 Este 0 -- -- 18
2020-01-11 23:00:00 8.3 23 Este 37 Este 0 -- -- 13
2020-01-11 22:00:00 9.1 27 Este 42 Este 0 -- -- 8
2020-01-11 21:00:00 9.2 22 Este 36 Este 0 -- -- 6
2020-01-11 20:00:00 9.9 18 Este 33 Este 0 -- -- 5
2020-01-11 19:00:00 10 21 Este 41 Este 0 -- -- 7
2020-01-11 18:00:00 13.8 21 Nordeste 38 Este 0 -- -- 5
2020-01-11 17:00:00 16.4 10 Nordeste 26 Este 0 -- -- 8
2020-01-11 16:00:00 16.5 13 Oeste 41 Este 0 -- -- 12
2020-01-11 15:00:00 15.5 24 Sudeste 41 Sudeste 0 -- -- 10
2020-01-11 14:00:00 15.1 22 Este 40 Este 0 -- -- 11
2020-01-11 13:00:00 15.2 24 Este 38 Este 0 -- -- 9
2020-01-11 12:00:00 15 17 Sudeste 26 Sudeste 0 -- -- 8
2020-01-11 11:00:00 14.5 12 Este 20 Este 0 -- -- 7
2020-01-11 10:00:00 11.3 5 Sur 23 Sudeste 0 -- -- 7
2020-01-11 09:00:00 7.6 19 Este 25 Este 0 -- -- 8
2020-01-11 08:00:00 3.6 6 Norte 24 Nordeste 0 -- -- 11
2020-01-11 07:00:00 4.4 11 Nordeste 21 Este 0 -- -- 12
2020-01-11 06:00:00 4.8 10 Norte 15 Norte 0 -- -- 11
2020-01-11 05:00:00 4.1 7 Norte 24 Este 0 -- -- 12
2020-01-11 04:00:00 7.1 9 Este 19 Este 0 -- -- 9
2020-01-11 03:00:00 7.1 15 Este 24 Este 0 -- -- 8
2020-01-11 02:00:00 7.1 19 Este 23 Este 0 -- -- 9
2020-01-11 01:00:00 7.4 18 Este 26 Este 0 -- -- 10
2020-01-11 00:00:00 7 20 Nordeste 24 Nordeste 0 -- -- 10
2020-01-10 23:00:00 7.1 19 Nordeste 23 Nordeste 0 -- -- 10
2020-01-10 22:00:00 7.5 15 Nordeste 27 Nordeste 0 -- -- 9
2020-01-10 21:00:00 7.6 20 Este 28 Nordeste 0 -- -- 11
2020-01-10 20:00:00 8 18 Nordeste 27 Este 0 -- -- 12
2020-01-10 19:00:00 8.9 17 Nordeste 26 Este 0 -- -- 12
2020-01-10 18:00:00 12.8 17 Nordeste 30 Nordeste 0 -- -- 12
2020-01-10 17:00:00 14 18 Nordeste 33 Nordeste 0 -- -- 18
2020-01-10 16:00:00 14.4 19 Nordeste 33 Este 0 -- -- 29
2020-01-10 15:00:00 14.7 24 Este 40 Este 0 -- -- 29
2020-01-10 14:00:00 14.7 23 Este 35 Este 0 -- -- 34
2020-01-10 13:00:00 14.1 22 Nordeste 40 Nordeste 0 -- -- 33
2020-01-10 12:00:00 13.2 28 Nordeste 44 Este 0 -- -- 38
2020-01-10 11:00:00 12.4 29 Nordeste 42 Este 0 -- -- 36
2020-01-10 10:00:00 10.8 30 Nordeste 43 Nordeste 0 -- -- 30
2020-01-10 09:00:00 6.4 23 Nordeste 36 Nordeste 0 -- -- 38
2020-01-10 08:00:00 5.7 22 Este 36 Este 0 -- -- 15
2020-01-10 07:00:00 5.1 23 Nordeste 38 Nordeste 0 -- -- 16
2020-01-10 06:00:00 5.2 24 Nordeste 32 Nordeste 0 -- -- 14
2020-01-10 05:00:00 4.8 22 Este 39 Este 0 -- -- 16
2020-01-10 04:00:00 4.9 21 Este 35 Este 0 -- -- 16
2020-01-10 03:00:00 5 25 Este 38 Este 0 -- -- 17
2020-01-10 02:00:00 5.1 22 Este 44 Este 0 -- -- 16
2020-01-10 01:00:00 5.3 23 Este 40 Este 0 -- -- 16
2020-01-10 00:00:00 4.3 24 Nordeste 36 Nordeste 0 -- -- 20
2020-01-09 23:00:00 4.2 22 Este 35 Este 0 -- -- 22
2020-01-09 22:00:00 3.9 23 Nordeste 32 Nordeste 0 -- -- 25
2020-01-09 21:00:00 4.8 24 Nordeste 36 Nordeste 0 -- -- 21
2020-01-09 20:00:00 5.3 30 Este 48 Este 0 -- -- 19
2020-01-09 19:00:00 5.2 22 Este 36 Nordeste 0 -- -- 20
2020-01-09 18:00:00 7.3 30 Nordeste 47 Nordeste 0 -- -- 16
2020-01-09 17:00:00 9.5 27 Nordeste 46 Nordeste 0 -- -- 14
2020-01-09 16:00:00 10.6 29 Nordeste 48 Nordeste 0 -- -- 14
2020-01-09 15:00:00 11 31 Nordeste 47 Nordeste 0 -- -- 14
2020-01-09 14:00:00 12 27 Nordeste 45 Nordeste 0 -- -- 13
2020-01-09 13:00:00 11.2 31 Nordeste 51 Nordeste 0 -- -- 15
2020-01-09 12:00:00 11.1 27 Nordeste 41 Nordeste 0 -- -- 16
2020-01-09 11:00:00 10.6 24 Nordeste 43 Nordeste 0 -- -- 14
2020-01-09 10:00:00 8.9 30 Nordeste 43 Nordeste 0 -- -- 17
2020-01-09 09:00:00 5.5 27 Nordeste 39 Nordeste 0 -- -- 18
2020-01-09 08:00:00 3.9 31 Nordeste 41 Nordeste 0 -- -- 15
2020-01-09 07:00:00 2.5 24 Nordeste 35 Este 0 -- -- 25
2020-01-09 06:00:00 3.5 24 Nordeste 35 Nordeste 0 -- -- 18
2020-01-09 05:00:00 3 26 Nordeste 42 Nordeste 0 -- -- 16
2020-01-09 04:00:00 5 27 Nordeste 43 Nordeste 0 -- -- 10
2020-01-09 03:00:00 3.6 22 Nordeste 34 Nordeste 0 -- -- 12
2020-01-09 02:00:00 4.1 25 Nordeste 40 Nordeste 0 -- -- 11
2020-01-09 01:00:00 4.6 25 Este 37 Este 0 -- -- 12
2020-01-09 00:00:00 4.2 24 Este 35 Este 0 -- -- 12
2020-01-08 23:00:00 3.7 22 Este 37 Este 0 -- -- 13
2020-01-08 22:00:00 3.1 27 Este 39 Nordeste 0 -- -- 21
2020-01-08 21:00:00 3.9 28 Este 50 Este 0 -- -- 16
2020-01-08 20:00:00 3.7 32 Este 46 Este 0 -- -- 16
2020-01-08 19:00:00 4.2 21 Este 36 Este 0 -- -- 19
2020-01-08 18:00:00 5.7 7 Sudoeste 20 Sudoeste 0 -- -- 73
2020-01-08 17:00:00 7.6 12 Sudoeste 30 Sudeste 0 -- -- 63
2020-01-08 16:00:00 8 17 Sudeste 37 Este 0 -- -- 25
2020-01-08 15:00:00 8.8 25 Este 37 Este 0 -- -- 28
2020-01-08 14:00:00 10 20 Este 40 Este 0 -- -- 20
2020-01-08 13:00:00 10.1 24 Este 39 Este 0 -- -- 16
2020-01-08 12:00:00 9 17 Este 40 Este 0 -- -- 30
2020-01-08 11:00:00 5.5 28 Este 39 Este 0 -- -- 53
2020-01-08 10:00:00 4 23 Este 41 Este 0 -- -- 55
2020-01-08 09:00:00 0.9 27 Este 40 Este 0 -- -- 83
2020-01-08 08:00:00 1.3 31 Este 51 Este 0 -- -- 88
2020-01-08 07:00:00 0.4 25 Este 37 Este 0 -- -- 72
2020-01-08 06:00:00 0.1 22 Este 38 Este 0 -- -- 47
2020-01-08 05:00:00 0.4 24 Este 35 Este 0 -- -- 49
2020-01-08 04:00:00 -0.3 20 Este 32 Este 0 -- -- 49
2020-01-08 03:00:00 -0.2 18 Este 29 Nordeste 0 -- -- 55
2020-01-08 02:00:00 -0.3 21 Nordeste 42 Este 0 -- -- 53
2020-01-08 01:00:00 0.6 21 Este 38 Este 0 -- -- 47
2020-01-08 00:00:00 0.5 18 Nordeste 37 Nordeste 0 -- -- 44
2020-01-07 23:00:00 1.7 23 Nordeste 41 Nordeste 0 -- -- 37
2020-01-07 22:00:00 2.2 28 Nordeste 41 Nordeste 0 -- -- 39
2020-01-07 21:00:00 1.8 20 Nordeste 36 Nordeste 0 -- -- 40
2020-01-07 20:00:00 3.2 27 Nordeste 40 Nordeste 0 -- -- 34
2020-01-07 19:00:00 3.9 23 Nordeste 35 Nordeste 0 -- -- 30
2020-01-07 18:00:00 6.6 19 Nordeste 32 Este 0 -- -- 22
2020-01-07 17:00:00 7.8 21 Este 32 Este 0 -- -- 28
2020-01-07 16:00:00 8.6 19 Nordeste 33 Nordeste 0 -- -- 28
2020-01-07 15:00:00 9.4 22 Nordeste 33 Este 0 -- -- 25
2020-01-07 14:00:00 9 14 Este 27 Nordeste 0 -- -- 29
2020-01-07 13:00:00 8.3 18 Nordeste 39 Este 0 -- -- 37
2020-01-07 12:00:00 6.5 24 Este 43 Este 0 -- -- 55
2020-01-07 11:00:00 4.6 28 Este 43 Nordeste 0 -- -- 77
2020-01-07 10:00:00 2.3 26 Nordeste 40 Este 0 -- -- 90
2020-01-07 09:00:00 1.3 26 Nordeste 42 Nordeste 0 -- -- 95
2020-01-07 08:00:00 0.5 22 Nordeste 42 Nordeste 0 -- -- 93
2020-01-07 07:00:00 -0.6 23 Nordeste 39 Este 0 -- -- 82
2020-01-07 06:00:00 0.3 26 Nordeste 56 Este 0 -- -- 62
2020-01-07 05:00:00 -0.1 45 Este 68 Este 0 -- -- 85
2020-01-07 04:00:00 -0.3 45 Este 69 Este 0 -- -- 88
2020-01-07 03:00:00 1.9 29 Nordeste 68 Nordeste 0 -- -- 77
2020-01-07 02:00:00 1.7 48 Nordeste 70 Nordeste 0 -- -- 78
2020-01-07 01:00:00 1.8 45 Nordeste 68 Nordeste 0 -- -- 85
2020-01-07 00:00:00 5.7 36 Nordeste 49 Nordeste 0 -- -- 24
2020-01-06 23:00:00 4.9 35 Nordeste 52 Nordeste 0 -- -- 33
2020-01-06 22:00:00 5 33 Nordeste 49 Nordeste 0 -- -- 26
2020-01-06 21:00:00 4.7 32 Nordeste 62 Nordeste 0 -- -- 48
2020-01-06 20:00:00 6.9 37 Nordeste 65 Nordeste 0 -- -- 11
2020-01-06 19:00:00 7.6 37 Norte 59 Nordeste 0 -- -- 8
2020-01-06 18:00:00 9 36 Nordeste 56 Norte 0 -- -- 8
2020-01-06 17:00:00 10.5 36 Nordeste 56 Norte 0 -- -- 7
2020-01-06 16:00:00 11.5 35 Nordeste 58 Nordeste 0 -- -- 8
2020-01-06 15:00:00 11.6 37 Nordeste 55 Nordeste 0 -- -- 8
2020-01-06 14:00:00 11.8 35 Nordeste 54 Nordeste 0 -- -- 9
2020-01-06 13:00:00 11.6 37 Nordeste 54 Nordeste 0 -- -- 8
2020-01-06 12:00:00 11.7 31 Nordeste 50 Nordeste 0 -- -- 9
2020-01-06 11:00:00 12.7 28 Nordeste 45 Nordeste 0 -- -- 7
2020-01-06 10:00:00 11.3 21 Nordeste 40 Nordeste 0 -- -- 7
2020-01-06 09:00:00 7.5 27 Nordeste 42 Este 0 -- -- 9